메인 페이지
METAR-TAF:

METAR-TAF

공항 :

타슈켄트, 우즈베키스탄

타슈켄트 국제공항

위도: 41-16N, 경도: 069-16E, 고도: 489m

현재 날씨관측

예보는 30분 전, 00:30시(UTC)에 발표되었습니다.
서남서4kt
온도 -1°C
습도 93%
기압 1027 hPa
시정: 2100m
고도 700ft 상공 흐림
박무

METAR: UTTT 180030Z 25004KT 2100 BR OVC007 M01/M02 Q1027 R08L/CLRD70 NOSIG

시각: 06:00 (01:00 UTC)

예보

예보는 2 시간 0분 전, 23:00시(UTC)에 발표되었습니다.
예보 대상 시간: 18일 00시부터 18일 24시까지 (UTC)
서남서8kt
시정: 3000m
고도 700ft 상공 구름 많음
고도 10000ft 상공 구름 많음
박무
일시적
18일 00시부터 18일 05시까지 (UTC)
여러 방향의 바람 2kt
시정: 0600m
고도 200ft 상공
어는 안개

TAF: UTTT 172300Z 1800/1824 24008KT 3000 BR BKN007 BKN100 TEMPO 1800/1805 VRB02KT 0600 FZFG VV002

4,000개 이상의 공항 관측 자료 및 예보 (METAR 및 TAF 보고).

지도상에서 검색 가능한 기상관측소가 노란 점과 빨간 점으로 표시되어 있습니다.

기상관측소 명을 보려면 표시 위로 마우스를 이동하세요.

날씨 관측과 예보를 보려면 클릭하세요.

지도 변경 : 확대하려면 엑스 표시가 있는 녹색 버튼, 축소하려면 빼기 표시가 있는 녹색 버튼, 다음 페이지의 지도를 보려면 녹색 화살표를 클릭하세요.


METAR-TAF: